createdAt,value
2018-02-26T00:01:11.316Z,5.18
2018-02-26T00:03:41.923Z,4.50
2018-02-26T00:06:08.960Z,4.07
2018-02-26T00:08:38.249Z,4.40
2018-02-26T00:11:08.847Z,3.90
2018-02-26T00:13:37.162Z,4.28
2018-02-26T00:16:08.362Z,4.72
2018-02-26T00:18:35.288Z,3.83
2018-02-26T00:21:13.546Z,5.10
2018-02-26T00:23:40.313Z,4.53
2018-02-26T00:26:06.972Z,4.10
2018-02-26T00:28:33.618Z,5.60
2018-02-26T00:31:05.418Z,4.40
2018-02-26T00:33:32.455Z,4.28
2018-02-26T00:36:03.156Z,5.72
2018-02-26T00:38:30.808Z,3.75
2018-02-26T00:40:58.247Z,3.72
2018-02-26T00:43:25.575Z,4.43
2018-02-26T00:45:52.570Z,4.68
2018-02-26T00:48:19.692Z,4.20
2018-02-26T00:50:46.352Z,3.60
2018-02-26T00:53:13.009Z,4.85
2018-02-26T00:55:40.093Z,4.10
2018-02-26T00:58:07.558Z,3.87
2018-02-26T01:00:34.839Z,4.18
2018-02-26T01:03:02.348Z,4.87
2018-02-26T01:05:29.854Z,4.07
2018-02-26T01:08:00.570Z,4.25
2018-02-26T01:10:27.800Z,4.18
2018-02-26T01:12:54.525Z,3.53
2018-02-26T01:15:21.207Z,4.90
2018-02-26T01:17:48.727Z,4.53
2018-02-26T01:20:16.486Z,4.45
2018-02-26T01:22:43.138Z,3.67
2018-02-26T01:25:10.375Z,4.55
2018-02-26T01:27:41.352Z,4.40
2018-02-26T01:30:09.033Z,5.00
2018-02-26T01:32:36.300Z,4.55
2018-02-26T01:35:02.922Z,4.25
2018-02-26T01:37:29.538Z,3.80
2018-02-26T01:39:56.189Z,5.28
2018-02-26T01:42:23.504Z,5.50
2018-02-26T01:44:50.216Z,4.35
2018-02-26T01:47:16.848Z,4.78
2018-02-26T01:49:44.400Z,5.55
2018-02-26T01:52:12.717Z,5.35
2018-02-26T01:54:39.352Z,5.32
2018-02-26T01:57:05.968Z,7.40
2018-02-26T01:59:34.014Z,5.75
2018-02-26T02:02:01.336Z,6.53
2018-02-26T02:04:28.140Z,6.40
2018-02-26T02:06:55.394Z,6.05
2018-02-26T02:09:22.435Z,5.90
2018-02-26T02:11:49.120Z,5.70
2018-02-26T02:14:17.471Z,7.20
2018-02-26T02:16:44.972Z,5.87
2018-02-26T02:19:11.683Z,9.52
2018-02-26T02:21:38.403Z,6.78
2018-02-26T02:24:05.533Z,5.93
2018-02-26T02:26:32.167Z,5.07
2018-02-26T02:28:58.853Z,4.95
2018-02-26T02:31:26.338Z,6.07
2018-02-26T02:33:53.751Z,5.82
2018-02-26T02:36:20.393Z,7.75
2018-02-26T02:38:50.866Z,5.80
2018-02-26T02:41:18.305Z,5.90
2018-02-26T02:43:44.964Z,8.02
2018-02-26T02:46:11.634Z,6.25
2018-02-26T02:48:38.384Z,6.35
2018-02-26T02:51:05.312Z,5.55
2018-02-26T02:53:34.704Z,5.72
2018-02-26T02:56:01.404Z,7.35
2018-02-26T02:58:34.411Z,8.65
2018-02-26T03:01:01.155Z,5.68
2018-02-26T03:03:28.797Z,6.00
2018-02-26T03:05:55.483Z,6.80
2018-02-26T03:08:22.772Z,4.72
2018-02-26T03:10:50.016Z,5.15
2018-02-26T03:13:16.615Z,6.22
2018-02-26T03:15:43.329Z,6.20
2018-02-26T03:18:11.433Z,5.55
2018-02-26T03:20:38.745Z,5.57
2018-02-26T03:23:05.374Z,8.75
2018-02-26T03:25:32.200Z,6.28
2018-02-26T03:27:59.252Z,6.75
2018-02-26T03:30:25.868Z,5.53
2018-02-26T03:32:52.517Z,6.62
2018-02-26T03:35:19.811Z,8.32
2018-02-26T03:37:46.482Z,5.87
2018-02-26T03:40:13.180Z,7.60
2018-02-26T03:42:43.627Z,7.30
2018-02-26T03:45:10.311Z,7.47
2018-02-26T03:47:37.011Z,6.03
2018-02-26T03:50:03.696Z,5.97
2018-02-26T03:52:33.346Z,5.22
2018-02-26T03:55:04.392Z,7.68
2018-02-26T03:57:32.663Z,5.90
2018-02-26T04:00:00.204Z,6.28
2018-02-26T04:02:28.955Z,6.10
2018-02-26T04:05:02.100Z,6.50
2018-02-26T04:07:29.492Z,5.25
2018-02-26T04:09:56.693Z,5.28
2018-02-26T04:12:23.466Z,8.00
2018-02-26T04:14:51.477Z,6.70
2018-02-26T04:17:18.181Z,4.68
2018-02-26T04:19:44.889Z,6.68
2018-02-26T04:22:11.571Z,5.10
2018-02-26T04:24:38.272Z,7.70
2018-02-26T04:27:05.891Z,4.57
2018-02-26T04:29:32.492Z,5.80
2018-02-26T04:31:59.400Z,6.35
2018-02-26T04:34:26.933Z,6.12
2018-02-26T04:36:53.631Z,5.80
2018-02-26T04:39:20.379Z,5.12
2018-02-26T04:41:49.920Z,6.07
2018-02-26T04:44:16.641Z,6.45
2018-02-26T04:46:48.097Z,7.07
2018-02-26T04:49:15.349Z,5.30
2018-02-26T04:51:42.061Z,6.40
2018-02-26T04:54:08.678Z,6.25
2018-02-26T04:56:36.178Z,4.80
2018-02-26T04:59:02.835Z,5.40
2018-02-26T05:01:29.444Z,6.10
2018-02-26T05:04:12.898Z,5.43
2018-02-26T05:06:41.267Z,7.62
2018-02-26T05:09:07.927Z,7.35
2018-02-26T05:11:34.605Z,5.78
2018-02-26T05:14:01.347Z,4.78
2018-02-26T05:16:28.332Z,5.53
2018-02-26T05:18:54.942Z,6.10
2018-02-26T05:21:21.601Z,5.35
2018-02-26T05:23:53.141Z,5.20
2018-02-26T05:26:20.518Z,5.50
2018-02-26T05:28:47.223Z,5.25
2018-02-26T05:31:17.711Z,6.28
2018-02-26T05:33:44.475Z,6.00
2018-02-26T05:36:11.124Z,6.00
2018-02-26T05:38:37.824Z,4.93
2018-02-26T05:41:04.425Z,4.80
2018-02-26T05:43:31.837Z,7.45
2018-02-26T05:45:58.652Z,6.18
2018-02-26T05:48:26.060Z,6.55
2018-02-26T05:50:52.730Z,7.55
2018-02-26T05:53:19.324Z,4.75
2018-02-26T05:55:46.045Z,6.10
2018-02-26T05:58:12.645Z,6.70
2018-02-26T06:00:46.074Z,6.82
2018-02-26T06:03:12.701Z,6.25
2018-02-26T06:05:40.112Z,4.78
2018-02-26T06:08:07.447Z,5.57
2018-02-26T06:10:35.345Z,6.93
2018-02-26T06:13:02.008Z,7.95
2018-02-26T06:15:28.670Z,4.43
2018-02-26T06:17:55.248Z,5.45
2018-02-26T06:20:21.843Z,5.53
2018-02-26T06:22:48.501Z,6.28
2018-02-26T06:25:15.115Z,5.72
2018-02-26T06:27:41.807Z,6.37
2018-02-26T06:30:12.353Z,5.68
2018-02-26T06:32:39.049Z,7.62
2018-02-26T06:35:06.521Z,5.12
2018-02-26T06:37:33.422Z,6.37
2018-02-26T06:40:00.104Z,7.57
2018-02-26T06:42:26.961Z,5.43
2018-02-26T06:44:53.836Z,7.75
2018-02-26T06:47:20.492Z,5.68
2018-02-26T06:49:47.279Z,5.43
2018-02-26T06:52:14.197Z,4.78
2018-02-26T06:54:41.015Z,8.45
2018-02-26T06:57:07.725Z,7.00
2018-02-26T06:59:34.553Z,5.05
2018-02-26T07:02:01.266Z,7.47
2018-02-26T07:04:28.022Z,5.65
2018-02-26T07:06:54.716Z,6.30
2018-02-26T07:09:21.403Z,4.28
2018-02-26T07:11:48.228Z,6.03
2018-02-26T07:14:15.015Z,6.20
2018-02-26T07:16:41.784Z,5.93
2018-02-26T07:19:08.528Z,5.15
2018-02-26T07:21:35.256Z,4.45
2018-02-26T07:24:02.001Z,6.65
2018-02-26T07:26:29.319Z,4.53
2018-02-26T07:28:55.928Z,4.97
2018-02-26T07:31:22.793Z,5.32
2018-02-26T07:33:49.488Z,5.78
2018-02-26T07:36:16.257Z,6.07
2018-02-26T07:38:43.122Z,5.05
2018-02-26T07:41:09.886Z,6.37
2018-02-26T07:43:36.641Z,4.40
2018-02-26T07:46:04.338Z,4.87
2018-02-26T07:48:31.165Z,5.82
2018-02-26T07:50:58.003Z,7.72
2018-02-26T07:53:24.734Z,5.20
2018-02-26T07:55:51.794Z,4.20
2018-02-26T07:58:18.618Z,5.22
2018-02-26T08:00:45.417Z,5.20
2018-02-26T08:03:12.212Z,4.45
2018-02-26T08:05:39.015Z,4.25
2018-02-26T08:08:05.706Z,3.25
2018-02-26T08:10:32.538Z,5.12
2018-02-26T08:12:59.262Z,3.70
2018-02-26T08:15:26.087Z,4.75
2018-02-26T08:17:52.805Z,4.32
2018-02-26T08:20:19.524Z,3.92
2018-02-26T08:22:46.520Z,4.87
2018-02-26T08:25:13.452Z,3.70
2018-02-26T08:27:40.108Z,5.70
2018-02-26T08:30:06.805Z,3.92
2018-02-26T08:32:33.507Z,4.07
2018-02-26T08:35:00.220Z,6.28
2018-02-26T08:37:26.948Z,3.70
2018-02-26T08:39:53.692Z,5.12
2018-02-26T08:42:20.453Z,4.37
2018-02-26T08:44:47.216Z,6.90
2018-02-26T08:47:13.987Z,5.25
2018-02-26T08:49:40.841Z,5.95
2018-02-26T08:52:07.564Z,4.30
2018-02-26T08:54:34.428Z,5.97
2018-02-26T08:57:01.336Z,4.28
2018-02-26T08:59:28.101Z,2.95
2018-02-26T09:01:54.814Z,3.92
2018-02-26T09:04:21.560Z,4.03
2018-02-26T09:06:48.324Z,4.10
2018-02-26T09:09:15.178Z,4.25
2018-02-26T09:11:42.105Z,4.25
2018-02-26T09:14:08.886Z,4.68
2018-02-26T09:16:35.719Z,5.87
2018-02-26T09:19:02.473Z,4.78
2018-02-26T09:21:29.252Z,6.70
2018-02-26T09:23:56.047Z,4.07
2018-02-26T09:26:22.822Z,5.25
2018-02-26T09:28:49.566Z,4.53
2018-02-26T09:31:16.314Z,4.12
2018-02-26T09:33:42.924Z,4.87
2018-02-26T09:36:09.655Z,4.25
2018-02-26T09:38:36.400Z,4.47
2018-02-26T09:41:04.060Z,4.93
2018-02-26T09:43:30.893Z,4.60
2018-02-26T09:45:57.637Z,4.15
2018-02-26T09:48:24.490Z,4.30
2018-02-26T09:50:57.240Z,4.90
2018-02-26T09:53:24.031Z,5.68
2018-02-26T09:55:50.866Z,4.87
2018-02-26T09:58:17.811Z,4.12
2018-02-26T10:00:44.647Z,4.68
2018-02-26T10:03:11.243Z,5.40
2018-02-26T10:05:38.078Z,4.60
2018-02-26T10:08:04.879Z,4.40
2018-02-26T10:10:31.548Z,7.93
2018-02-26T10:12:58.443Z,4.30
2018-02-26T10:15:25.171Z,5.12
2018-02-26T10:17:51.881Z,5.43
2018-02-26T10:20:18.741Z,6.87
2018-02-26T10:22:45.609Z,6.20
2018-02-26T10:25:12.355Z,3.78
2018-02-26T10:27:39.065Z,5.20
2018-02-26T10:30:05.840Z,5.07
2018-02-26T10:32:32.611Z,4.35
2018-02-26T10:34:59.865Z,4.70
2018-02-26T10:37:26.730Z,2.60
2018-02-26T10:39:53.446Z,3.55
2018-02-26T10:42:20.248Z,3.80
2018-02-26T10:44:46.946Z,4.55
2018-02-26T10:47:17.949Z,4.07
2018-02-26T10:49:44.705Z,3.17
2018-02-26T10:52:11.445Z,2.90
2018-02-26T10:54:38.286Z,3.25
2018-02-26T10:57:05.114Z,3.67
2018-02-26T10:59:32.593Z,2.70
2018-02-26T11:01:59.481Z,3.87
2018-02-26T11:04:27.708Z,2.45
2018-02-26T11:06:54.615Z,2.78
2018-02-26T11:09:21.493Z,3.50
2018-02-26T11:11:49.977Z,2.78
2018-02-26T11:14:17.639Z,2.60
2018-02-26T11:16:49.006Z,1.85
2018-02-26T11:19:16.003Z,2.67
2018-02-26T11:21:43.777Z,3.12
2018-02-26T11:24:10.679Z,3.20
2018-02-26T11:26:38.071Z,2.33
2018-02-26T11:29:05.739Z,2.75
2018-02-26T11:31:34.246Z,2.87
2018-02-26T11:34:01.698Z,2.58
2018-02-26T11:36:30.663Z,2.75
2018-02-26T11:38:57.461Z,2.80
2018-02-26T11:41:25.273Z,2.37
2018-02-26T11:43:52.131Z,3.25
2018-02-26T11:46:19.567Z,2.40
2018-02-26T11:48:46.350Z,2.22
2018-02-26T11:51:13.047Z,1.77
2018-02-26T11:53:39.680Z,2.03
2018-02-26T11:56:06.324Z,1.83
2018-02-26T11:58:33.037Z,3.83
2018-02-26T12:00:59.762Z,2.03
2018-02-26T12:03:27.823Z,2.45
2018-02-26T12:05:58.644Z,1.10
2018-02-26T12:08:25.432Z,4.40
2018-02-26T12:10:52.527Z,2.55
2018-02-26T12:13:19.933Z,3.47
2018-02-26T12:15:50.889Z,2.90
2018-02-26T12:18:18.929Z,3.42
2018-02-26T12:20:50.031Z,1.92
2018-02-26T12:23:17.742Z,1.95
2018-02-26T12:25:44.749Z,2.22
2018-02-26T12:28:12.342Z,1.52
2018-02-26T12:30:40.261Z,2.20
2018-02-26T12:33:08.673Z,2.10
2018-02-26T12:35:35.418Z,2.00
2018-02-26T12:38:11.139Z,2.08
2018-02-26T12:40:37.836Z,1.77
2018-02-26T12:43:05.506Z,2.28
2018-02-26T12:45:32.332Z,2.00
2018-02-26T12:47:59.037Z,2.95
2018-02-26T12:50:26.502Z,1.40
2018-02-26T12:52:58.055Z,3.00
2018-02-26T12:55:25.527Z,3.60
2018-02-26T12:57:52.221Z,1.85
2018-02-26T13:00:19.152Z,3.00
2018-02-26T13:02:47.827Z,3.03
2018-02-26T13:05:14.564Z,1.92
2018-02-26T13:07:46.631Z,1.80
2018-02-26T13:10:14.077Z,2.58
2018-02-26T13:12:42.468Z,1.70
2018-02-26T13:15:13.149Z,3.35
2018-02-26T13:17:48.299Z,4.07
2018-02-26T13:20:14.955Z,1.80
2018-02-26T13:22:41.570Z,2.10
2018-02-26T13:25:08.204Z,3.28
2018-02-26T13:27:34.828Z,2.58
2018-02-26T13:30:01.471Z,2.53
2018-02-26T13:32:28.136Z,2.45
2018-02-26T13:34:54.747Z,1.83
2018-02-26T13:37:21.402Z,1.33
2018-02-26T13:39:48.010Z,2.53
2018-02-26T13:42:14.644Z,2.58
2018-02-26T13:44:41.276Z,1.98
2018-02-26T13:47:07.983Z,2.87
2018-02-26T13:49:34.623Z,2.35
2018-02-26T13:52:01.310Z,1.62
2018-02-26T13:54:27.972Z,1.58
2018-02-26T13:56:54.619Z,4.53
2018-02-26T13:59:21.245Z,1.73
2018-02-26T14:01:47.882Z,1.83
2018-02-26T14:04:14.521Z,2.15
2018-02-26T14:06:41.328Z,1.37
2018-02-26T14:09:07.961Z,1.52
2018-02-26T14:11:34.571Z,1.48
2018-02-26T14:14:01.206Z,8.52
2018-02-26T14:16:27.819Z,2.35
2018-02-26T14:18:54.453Z,1.85
2018-02-26T14:21:21.080Z,1.73
2018-02-26T14:23:47.701Z,1.42
2018-02-26T14:26:14.370Z,1.77
2018-02-26T14:28:41.001Z,1.50
2018-02-26T14:31:07.619Z,2.22
2018-02-26T14:33:34.248Z,1.83
2018-02-26T14:36:00.870Z,1.70
2018-02-26T14:38:27.522Z,1.83
2018-02-26T14:40:54.173Z,1.48
2018-02-26T14:43:20.812Z,1.60
2018-02-26T14:45:47.464Z,2.53
2018-02-26T14:48:14.076Z,1.35
2018-02-26T14:50:40.821Z,1.67
2018-02-26T14:53:08.281Z,1.85
2018-02-26T14:55:34.911Z,1.73
2018-02-26T14:58:01.541Z,1.77
2018-02-26T15:00:28.212Z,1.40
2018-02-26T15:02:54.833Z,2.28
2018-02-26T15:05:21.467Z,1.50
2018-02-26T15:07:48.104Z,1.30
2018-02-26T15:10:14.814Z,2.10
2018-02-26T15:12:41.468Z,1.95
2018-02-26T15:15:08.117Z,1.77
2018-02-26T15:17:34.843Z,2.05
2018-02-26T15:20:01.583Z,1.83
2018-02-26T15:22:28.219Z,2.20
2018-02-26T15:24:54.824Z,1.60
2018-02-26T15:27:21.461Z,2.53
2018-02-26T15:29:48.100Z,2.78
2018-02-26T15:32:14.761Z,3.05
2018-02-26T15:34:41.400Z,1.70
2018-02-26T15:37:08.060Z,1.65
2018-02-26T15:39:34.707Z,1.65
2018-02-26T15:42:01.338Z,1.33
2018-02-26T15:44:27.960Z,1.50
2018-02-26T15:46:54.654Z,2.10
2018-02-26T15:49:21.272Z,2.45
2018-02-26T15:51:47.887Z,2.20
2018-02-26T15:54:14.520Z,2.03
2018-02-26T15:56:41.171Z,2.60
2018-02-26T15:59:08.313Z,1.98
2018-02-26T16:01:34.974Z,1.73
2018-02-26T16:04:01.616Z,1.75
2018-02-26T16:06:28.248Z,1.83
2018-02-26T16:08:54.894Z,2.10
2018-02-26T16:11:21.526Z,2.12
2018-02-26T16:13:48.165Z,3.25
2018-02-26T16:16:14.802Z,2.55
2018-02-26T16:18:41.472Z,2.50
2018-02-26T16:21:08.111Z,3.45
2018-02-26T16:23:34.736Z,3.30
2018-02-26T16:26:01.391Z,3.90
2018-02-26T16:28:28.110Z,1.92
2018-02-26T16:30:54.749Z,3.30
2018-02-26T16:33:21.880Z,4.20
2018-02-26T16:35:48.523Z,2.75
2018-02-26T16:38:15.181Z,2.85
2018-02-26T16:40:41.836Z,1.95
2018-02-26T16:43:08.479Z,3.95
2018-02-26T16:45:35.142Z,3.10
2018-02-26T16:48:01.807Z,2.92
2018-02-26T16:50:28.502Z,2.67
2018-02-26T16:52:55.132Z,2.70
2018-02-26T16:55:21.834Z,2.58
2018-02-26T16:57:48.497Z,2.75
2018-02-26T17:00:15.153Z,3.35
2018-02-26T17:02:41.805Z,3.20
2018-02-26T17:05:08.613Z,3.72
2018-02-26T17:07:35.213Z,3.25
2018-02-26T17:10:01.928Z,2.87
2018-02-26T17:12:28.584Z,3.12
2018-02-26T17:14:55.208Z,3.10
2018-02-26T17:17:21.836Z,3.22
2018-02-26T17:19:49.271Z,2.90
2018-02-26T17:22:15.921Z,2.65
2018-02-26T17:24:42.587Z,3.65
2018-02-26T17:27:09.229Z,3.15
2018-02-26T17:29:35.872Z,2.95
2018-02-26T17:32:02.534Z,3.50
2018-02-26T17:34:29.142Z,4.82
2018-02-26T17:36:55.768Z,3.25
2018-02-26T17:39:22.396Z,3.85
2018-02-26T17:41:49.064Z,3.72
2018-02-26T17:44:15.704Z,3.37
2018-02-26T17:46:42.360Z,4.30
2018-02-26T17:49:08.993Z,3.58
2018-02-26T17:51:35.668Z,3.28
2018-02-26T17:54:02.328Z,3.12
2018-02-26T17:56:28.990Z,3.30
2018-02-26T17:58:55.648Z,3.87
2018-02-26T18:01:22.807Z,4.35
2018-02-26T18:03:49.492Z,3.65
2018-02-26T18:06:16.200Z,5.03
2018-02-26T18:08:42.928Z,3.85
2018-02-26T18:11:14.088Z,7.57
2018-02-26T18:13:40.814Z,5.05
2018-02-26T18:16:08.127Z,3.58
2018-02-26T18:18:34.869Z,4.12
2018-02-26T18:21:01.547Z,4.55
2018-02-26T18:23:28.258Z,5.22
2018-02-26T18:25:54.920Z,5.90
2018-02-26T18:28:21.632Z,3.85
2018-02-26T19:00:04.815Z,3.70
2018-02-26T19:02:32.049Z,3.53
2018-02-26T19:05:01.356Z,3.55
2018-02-26T19:07:28.015Z,3.55
2018-02-26T19:09:54.981Z,3.08
2018-02-26T19:12:21.685Z,3.08
2018-02-26T19:14:50.158Z,3.62
2018-02-26T19:17:17.718Z,3.22
2018-02-26T19:19:45.042Z,3.95
2018-02-26T19:22:12.786Z,3.78
2018-02-26T19:24:39.503Z,3.72
2018-02-26T19:27:06.284Z,2.97
2018-02-26T19:29:32.991Z,3.55
2018-02-26T19:31:59.859Z,3.58
2018-02-26T19:34:27.638Z,4.72
2018-02-26T19:36:54.356Z,3.40
2018-02-26T19:39:21.930Z,4.70
2018-02-26T19:41:50.262Z,3.40
2018-02-26T19:44:17.054Z,3.55
2018-02-26T19:46:44.488Z,4.35
2018-02-26T19:49:11.269Z,2.60
2018-02-26T19:51:37.928Z,2.55
2018-02-26T19:54:04.651Z,2.97
2018-02-26T19:56:31.873Z,2.97
2018-02-26T19:59:09.553Z,3.00
2018-02-26T20:01:36.273Z,3.83
2018-02-26T20:04:03.056Z,2.80
2018-02-26T20:06:29.835Z,3.47
2018-02-26T20:08:57.257Z,3.22
2018-02-26T20:11:24.114Z,2.78
2018-02-26T20:13:50.841Z,4.55
2018-02-26T20:16:18.460Z,2.80
2018-02-26T20:18:45.605Z,3.00
2018-02-26T20:21:12.347Z,6.03
2018-02-26T20:23:43.050Z,2.60
2018-02-26T20:26:10.142Z,3.17
2018-02-26T20:28:36.985Z,3.50
2018-02-26T20:31:04.609Z,9.90
2018-02-26T20:33:35.514Z,5.45
2018-02-26T20:36:02.234Z,3.37
2018-02-26T20:38:30.789Z,3.90
2018-02-26T20:40:57.726Z,3.33
2018-02-26T20:43:24.595Z,3.95
2018-02-26T20:45:51.643Z,3.10
2018-02-26T20:48:18.819Z,3.55
2018-02-26T20:50:45.474Z,2.70
2018-02-26T20:53:12.253Z,3.47
2018-02-26T20:55:39.650Z,3.50
2018-02-26T20:58:07.425Z,2.87
2018-02-26T21:00:34.126Z,3.20
2018-02-26T21:03:01.003Z,2.45
2018-02-26T21:05:28.014Z,2.50
2018-02-26T21:07:56.608Z,2.47
2018-02-26T21:10:27.495Z,3.92
2018-02-26T21:12:54.908Z,1.95
2018-02-26T21:15:22.296Z,2.72
2018-02-26T21:17:49.221Z,2.97
2018-02-26T21:20:16.873Z,2.72
2018-02-26T21:22:44.297Z,1.92
2018-02-26T21:25:11.031Z,2.20
2018-02-26T21:27:38.434Z,2.00
2018-02-26T21:30:05.566Z,2.28
2018-02-26T21:32:32.978Z,1.62
2018-02-26T21:35:06.679Z,2.85
2018-02-26T21:37:33.347Z,2.08
2018-02-26T21:40:00.079Z,2.10
2018-02-26T21:42:26.772Z,1.67
2018-02-26T21:44:54.530Z,2.37
2018-02-26T21:47:21.484Z,2.78
2018-02-26T21:49:53.062Z,2.25
2018-02-26T21:52:26.105Z,4.40
2018-02-26T21:54:53.382Z,2.58
2018-02-26T21:57:20.076Z,1.87
2018-02-26T21:59:50.783Z,2.08
2018-02-26T22:02:17.502Z,2.33
2018-02-26T22:04:44.172Z,3.00
2018-02-26T22:07:20.787Z,2.50
2018-02-26T22:09:47.667Z,1.62
2018-02-26T22:12:15.228Z,2.37
2018-02-26T22:14:41.936Z,2.95
2018-02-26T22:17:08.553Z,8.68
2018-02-26T22:19:35.690Z,2.95
2018-02-26T22:22:02.315Z,2.35
2018-02-26T22:24:33.106Z,3.75
2018-02-26T22:27:03.638Z,3.50
2018-02-26T22:29:26.438Z,3.78
2018-02-26T22:31:53.480Z,3.10
2018-02-26T22:34:25.073Z,3.58
2018-02-26T22:36:51.783Z,2.53
2018-02-26T22:39:18.424Z,3.15
2018-02-26T22:41:46.234Z,3.10
2018-02-26T22:44:12.868Z,3.28
2018-02-26T22:46:39.497Z,5.03
2018-02-26T22:58:52.142Z,2.92
2018-02-26T23:01:20.676Z,3.75
2018-02-26T23:03:47.328Z,2.97
2018-02-26T23:06:14.022Z,2.90
2018-02-26T23:08:40.917Z,5.20
2018-02-26T23:11:07.638Z,3.80
2018-02-26T23:13:38.996Z,5.28
2018-02-26T23:16:07.132Z,3.60
2018-02-26T23:18:34.074Z,4.05
2018-02-26T23:21:04.450Z,4.57
2018-02-26T23:23:34.369Z,5.05
2018-02-26T23:26:00.947Z,4.12
2018-02-26T23:28:28.077Z,4.07
2018-02-26T23:30:59.695Z,3.25
2018-02-26T23:33:27.549Z,2.20
2018-02-26T23:35:54.378Z,2.90
2018-02-26T23:38:21.420Z,8.55
2018-02-26T23:40:48.621Z,3.58
2018-02-26T23:43:15.285Z,3.55
2018-02-26T23:45:47.066Z,4.18
2018-02-26T23:48:13.855Z,2.97
2018-02-26T23:50:40.936Z,3.50
2018-02-26T23:53:07.772Z,3.40
2018-02-26T23:55:35.018Z,3.00
2018-02-26T23:58:01.739Z,3.10
